Ana Sayfa
METAR-TAF:

METAR-TAF

Havaalanları :

Rowan County Airport

Salisbury, Kuzey Carolina, Amerika Birleşik Devletleri

Enlem: 35-39N, Boylam: 080-31W, yükseklik: 236 m

Güncel hava durumu gözlemi

Rapor saat 08:55 UTC de 13 dakika önce yapıldı.
Sakin rüzgar
Sıcaklık -2°C
Nem 69%
Basınç 1019 hPa
Görüş mesafesi: 16.1 km
Açık gökyüzü

METAR: KRUQ 280855Z AUTO 00000KT 10SM CLR M02/M07 A3009 RMK AO2 T10201074

Saat: 04:08 (09:08 UTC)


TAF: eksik

4.000'den fazla havaalanı için hava durumu gözlemleri ve tahminleri (METAR ve TAF raporları).

Kullanılabilir istasyonlar harita üzerinde sarı ve kırmızı noktalarla gösterilir.

İstasyonun adını görmek için fareyi noktanın üzerinde gezdirin.

Sonrasında hava gözlem ve tahminlerini görmek için tıklayın.

Haritayı değiştirmek için: yaklaştırmak için siyah artı işaretli yeşil düğmeye ve uzaklaştırmak için de eksi işaretli düğmeye hızla tıklayın; bitişik haritalar için yeşil okları kullanın.


METAR-TAF: